Time;durP1;ratioP1;P1;durP2;ratioP2;P2;SDS_P1;SDS_P2;PMS_P1;PMS_P2;Temp;Humidity;BMP_temperature;BMP_pressure;BME280_temperature;BME280_humidity;BME280_pressure;Samples;Min_cycle;Max_cycle;Signal;HPM_P1;HPM_P2
2022/07/17 00:00:34;;;;;;;;;;;17.50;91.40;;;;;;4980349;28;20623;-70
2022/07/17 00:03:01;;;;;;;;;;;17.50;92.20;;;;;;4975259;28;25065;-70
2022/07/17 00:05:29;;;;;;;;;;;17.40;91.00;;;;;;4983178;28;20068;-69
2022/07/17 00:07:57;;;;;;;;;;;17.40;92.30;;;;;;4991019;28;20271;-69
2022/07/17 00:10:26;;;;;;;;;;;17.40;91.50;;;;;;4967989;28;20085;-69
2022/07/17 00:12:54;;;;;;;;;;;17.40;91.70;;;;;;4974018;28;20745;-68
2022/07/17 00:15:22;;;;;;;;;;;17.40;92.70;;;;;;4980985;28;20241;-69
2022/07/17 00:17:49;;;;;;;;;;;17.30;91.10;;;;;;4977059;28;20169;-66
2022/07/17 00:20:17;;;;;;;;;;;17.30;92.20;;;;;;4978543;28;25060;-68
2022/07/17 00:22:46;;;;;;;;;;;17.20;92.80;;;;;;4977271;28;20119;-69
2022/07/17 00:25:14;;;;;;;;;;;17.20;92.00;;;;;;4978143;28;20799;-68
2022/07/17 00:27:43;;;;;;;;;;;17.20;92.40;;;;;;4991675;28;20314;-69
2022/07/17 00:30:12;;;;;;;;;;;17.20;92.30;;;;;;4980302;28;25076;-68
2022/07/17 00:32:41;;;;;;;;;;;17.10;92.00;;;;;;4983026;28;20723;-69
2022/07/17 00:35:09;;;;;;;;;;;17.10;91.70;;;;;;4994589;28;20345;-69
2022/07/17 00:37:39;;;;;;;;;;;17.00;91.70;;;;;;4988717;28;20686;-68
2022/07/17 00:40:07;;;;;;;;;;;16.90;92.50;;;;;;4976907;28;20272;-68
2022/07/17 00:42:35;;;;;;;;;;;16.90;92.70;;;;;;4981638;28;20130;-68
2022/07/17 00:45:04;;;;;;;;;;;16.90;92.20;;;;;;4985456;28;20785;-69
2022/07/17 00:47:32;;;;;;;;;;;16.80;93.40;;;;;;4981393;28;20226;-69
2022/07/17 00:50:01;;;;;;;;;;;16.80;93.50;;;;;;4984025;28;25076;-69
2022/07/17 00:52:29;;;;;;;;;;;16.70;93.20;;;;;;4981477;28;20160;-66
2022/07/17 00:54:58;;;;;;;;;;;16.70;93.60;;;;;;4986751;28;20207;-68
2022/07/17 00:57:47;;;;;;;;;;;16.70;93.10;;;;;;4981188;28;20245;-69
2022/07/17 01:00:16;;;;;;;;;;;16.70;93.40;;;;;;4981373;28;25065;-69
2022/07/17 01:02:45;;;;;;;;;;;16.70;92.60;;;;;;4980259;28;20125;-68
2022/07/17 01:05:13;;;;;;;;;;;16.70;92.90;;;;;;4983665;28;20216;-69
2022/07/17 01:07:47;;;;;;;;;;;16.60;92.30;;;;;;4977889;28;20229;-69
2022/07/17 01:10:16;;;;;;;;;;;16.60;93.40;;;;;;4975091;28;20131;-69
2022/07/17 01:12:44;;;;;;;;;;;16.60;92.80;;;;;;4979578;28;20361;-68
2022/07/17 01:15:12;;;;;;;;;;;16.60;92.80;;;;;;4978699;28;25079;-68
2022/07/17 01:17:41;;;;;;;;;;;16.50;92.40;;;;;;4973492;28;20218;-69
2022/07/17 01:20:10;;;;;;;;;;;16.50;92.90;;;;;;4973916;28;20239;-69
2022/07/17 01:22:43;;;;;;;;;;;16.50;93.10;;;;;;4979180;28;20153;-69
2022/07/17 01:25:11;;;;;;;;;;;16.50;93.30;;;;;;4981048;28;20669;-68
2022/07/17 01:27:39;;;;;;;;;;;16.40;93.00;;;;;;4980063;28;20216;-69
2022/07/17 01:30:07;;;;;;;;;;;16.40;94.50;;;;;;4980282;28;20435;-69
2022/07/17 01:32:36;;;;;;;;;;;16.50;93.70;;;;;;4987267;28;21032;-69
2022/07/17 01:35:04;;;;;;;;;;;16.50;94.50;;;;;;4982674;28;25081;-68
2022/07/17 01:37:32;;;;;;;;;;;16.50;93.70;;;;;;4983739;28;20971;-69
2022/07/17 01:40:01;;;;;;;;;;;16.50;94.50;;;;;;4981678;28;20776;-69
2022/07/17 01:42:29;;;;;;;;;;;16.50;94.40;;;;;;4983121;28;21198;-67
2022/07/17 01:44:58;;;;;;;;;;;16.60;94.60;;;;;;4979833;28;20202;-69
2022/07/17 01:47:25;;;;;;;;;;;16.50;93.70;;;;;;4980441;28;20361;-68
2022/07/17 01:49:54;;;;;;;;;;;16.50;94.00;;;;;;4982520;28;20097;-69
2022/07/17 01:52:22;;;;;;;;;;;16.50;94.20;;;;;;4986075;28;20148;-69
2022/07/17 01:54:50;;;;;;;;;;;16.50;94.20;;;;;;4981989;28;25071;-68
2022/07/17 01:57:20;;;;;;;;;;;16.40;94.00;;;;;;4978235;28;20099;-69
2022/07/17 01:59:47;;;;;;;;;;;16.40;94.50;;;;;;4984052;28;20222;-69
2022/07/17 02:02:16;;;;;;;;;;;16.40;94.80;;;;;;4983936;28;20723;-68
2022/07/17 02:04:45;;;;;;;;;;;16.40;94.70;;;;;;4981064;28;20219;-68
2022/07/17 02:07:13;;;;;;;;;;;16.30;94.30;;;;;;4981087;28;20554;-69
2022/07/17 02:09:41;;;;;;;;;;;16.40;95.50;;;;;;4975892;28;25071;-69
2022/07/17 02:12:08;;;;;;;;;;;16.40;94.50;;;;;;4977898;28;20114;-69
2022/07/17 02:14:38;;;;;;;;;;;16.40;94.90;;;;;;4983929;28;20262;-68
2022/07/17 02:17:05;;;;;;;;;;;16.30;94.90;;;;;;4980039;28;25083;-68
2022/07/17 02:19:34;;;;;;;;;;;16.40;95.40;;;;;;4972469;28;20082;-69
2022/07/17 02:22:02;;;;;;;;;;;16.20;94.10;;;;;;4988655;28;20252;-69
2022/07/17 02:24:29;;;;;;;;;;;16.30;95.00;;;;;;4992686;28;20600;-69
2022/07/17 02:26:58;;;;;;;;;;;16.20;94.60;;;;;;4982643;28;20202;-69
2022/07/17 02:29:25;;;;;;;;;;;16.20;94.50;;;;;;4978067;28;20573;-68
2022/07/17 02:31:55;;;;;;;;;;;16.20;94.90;;;;;;4983967;28;20185;-69
2022/07/17 02:34:23;;;;;;;;;;;16.20;95.80;;;;;;4979485;28;20508;-69
2022/07/17 02:36:51;;;;;;;;;;;16.20;94.80;;;;;;4976626;28;20240;-69
2022/07/17 02:39:18;;;;;;;;;;;16.20;95.10;;;;;;4980958;28;20408;-70
2022/07/17 02:41:46;;;;;;;;;;;16.20;95.60;;;;;;4994723;28;20632;-70
2022/07/17 02:44:14;;;;;;;;;;;16.10;94.70;;;;;;4976440;28;25089;-70
2022/07/17 02:46:42;;;;;;;;;;;16.10;96.20;;;;;;4985935;28;20121;-69
2022/07/17 02:49:11;;;;;;;;;;;16.10;95.00;;;;;;4981697;28;20195;-69
2022/07/17 02:51:39;;;;;;;;;;;16.00;94.90;;;;;;4983085;28;20583;-68
2022/07/17 02:54:07;;;;;;;;;;;15.90;94.90;;;;;;4982873;28;25101;-70
2022/07/17 02:56:35;;;;;;;;;;;16.00;95.00;;;;;;4980375;28;20080;-67
2022/07/17 02:59:02;;;;;;;;;;;15.90;95.20;;;;;;4981633;28;20269;-68
2022/07/17 03:01:30;;;;;;;;;;;15.80;95.10;;;;;;4979709;28;20108;-68
2022/07/17 03:03:59;;;;;;;;;;;15.80;96.20;;;;;;4980843;28;20245;-70
2022/07/17 03:06:28;;;;;;;;;;;15.80;95.60;;;;;;4984099;28;20730;-69
2022/07/17 03:08:56;;;;;;;;;;;15.80;96.00;;;;;;4982068;28;20227;-69
2022/07/17 03:11:23;;;;;;;;;;;15.80;95.20;;;;;;4981975;28;20474;-69
2022/07/17 03:13:51;;;;;;;;;;;15.80;97.10;;;;;;4979993;28;21442;-69
2022/07/17 03:16:19;;;;;;;;;;;15.90;96.50;;;;;;4997569;28;25057;-69
2022/07/17 03:18:47;;;;;;;;;;;15.90;96.50;;;;;;4980888;28;21791;-69
2022/07/17 03:21:15;;;;;;;;;;;15.90;95.90;;;;;;4979305;28;20249;-69
2022/07/17 03:23:44;;;;;;;;;;;15.80;95.40;;;;;;4986421;28;20235;-69
2022/07/17 03:26:12;;;;;;;;;;;15.80;95.80;;;;;;4980446;28;20211;-69
2022/07/17 03:28:39;;;;;;;;;;;15.70;96.40;;;;;;4981459;28;20075;-69
2022/07/17 03:31:07;;;;;;;;;;;15.70;95.90;;;;;;4978325;28;20650;-69
2022/07/17 03:33:35;;;;;;;;;;;15.60;96.10;;;;;;4977407;28;20258;-70
2022/07/17 03:36:03;;;;;;;;;;;15.70;96.70;;;;;;4979313;28;20251;-70
2022/07/17 03:38:31;;;;;;;;;;;15.70;96.30;;;;;;4989255;28;20103;-73
2022/07/17 03:41:00;;;;;;;;;;;15.70;96.20;;;;;;4984128;28;20232;-69
2022/07/17 03:43:28;;;;;;;;;;;15.70;96.70;;;;;;4978132;28;20674;-68
2022/07/17 03:45:56;;;;;;;;;;;15.70;96.80;;;;;;4975908;28;20212;-69
2022/07/17 03:48:24;;;;;;;;;;;15.70;96.50;;;;;;4977886;28;20113;-68
2022/07/17 03:50:51;;;;;;;;;;;15.70;96.80;;;;;;4976519;28;25093;-69
2022/07/17 03:53:19;;;;;;;;;;;15.60;96.70;;;;;;4978017;28;20102;-68
2022/07/17 03:55:47;;;;;;;;;;;15.60;96.60;;;;;;4962962;28;20264;-66
2022/07/17 03:58:16;;;;;;;;;;;15.60;97.20;;;;;;4955239;28;20651;-66
2022/07/17 04:00:44;;;;;;;;;;;15.70;97.50;;;;;;4956428;28;20966;-67
2022/07/17 04:03:12;;;;;;;;;;;15.70;96.70;;;;;;4958078;28;21153;-67
2022/07/17 04:05:40;;;;;;;;;;;15.70;97.30;;;;;;4957141;28;20446;-67
2022/07/17 04:08:07;;;;;;;;;;;15.70;96.90;;;;;;4959548;28;21624;-67
2022/07/17 04:10:36;;;;;;;;;;;15.70;96.70;;;;;;4958763;28;20858;-67
2022/07/17 04:13:04;;;;;;;;;;;15.70;97.80;;;;;;4960465;28;25066;-66
2022/07/17 04:15:55;;;;;;;;;;;15.70;96.70;;;;;;4959139;28;20105;-66
2022/07/17 04:18:24;;;;;;;;;;;15.70;97.00;;;;;;4957889;28;20251;-66
2022/07/17 04:20:52;;;;;;;;;;;15.60;97.60;;;;;;4959925;28;20257;-66
2022/07/17 04:23:20;;;;;;;;;;;15.60;98.10;;;;;;4960256;28;21061;-67
2022/07/17 04:25:48;;;;;;;;;;;15.70;98.10;;;;;;4959946;28;26144;-66
2022/07/17 04:28:16;;;;;;;;;;;15.60;97.60;;;;;;4939197;28;20125;-67
2022/07/17 04:30:46;;;;;;;;;;;15.70;98.10;;;;;;4965069;28;21179;-67
2022/07/17 04:33:14;;;;;;;;;;;15.70;97.60;;;;;;4958011;28;20078;-67
2022/07/17 04:35:41;;;;;;;;;;;15.70;97.50;;;;;;4957900;28;20364;-66
2022/07/17 04:38:10;;;;;;;;;;;15.70;97.80;;;;;;4956627;28;20337;-66
2022/07/17 04:40:39;;;;;;;;;;;15.80;97.40;;;;;;4958229;28;20712;-66
2022/07/17 04:43:07;;;;;;;;;;;15.80;97.70;;;;;;4957302;28;20261;-67
2022/07/17 04:45:34;;;;;;;;;;;15.90;98.70;;;;;;4958085;28;20274;-67
2022/07/17 04:48:04;;;;;;;;;;;15.90;98.00;;;;;;4957661;28;20913;-67
2022/07/17 04:50:32;;;;;;;;;;;15.90;97.60;;;;;;4956243;28;20104;-67
2022/07/17 04:53:01;;;;;;;;;;;15.90;98.20;;;;;;4956897;28;20545;-67
2022/07/17 04:55:29;;;;;;;;;;;15.90;98.10;;;;;;4957997;28;20522;-66
2022/07/17 04:57:57;;;;;;;;;;;16.00;98.60;;;;;;4957649;28;20153;-67
2022/07/17 05:00:24;;;;;;;;;;;15.90;97.90;;;;;;4956141;28;25068;-66
2022/07/17 05:02:52;;;;;;;;;;;15.90;97.70;;;;;;4957006;28;20083;-66
2022/07/17 05:05:22;;;;;;;;;;;15.90;97.80;;;;;;4956684;28;20236;-67
2022/07/17 05:07:50;;;;;;;;;;;16.00;97.80;;;;;;4957512;28;20208;-68
2022/07/17 05:10:18;;;;;;;;;;;16.00;98.90;;;;;;4955029;28;20749;-67
2022/07/17 05:12:54;;;;;;;;;;;16.20;99.10;;;;;;4957246;28;20208;-67
2022/07/17 05:15:21;;;;;;;;;;;16.20;98.60;;;;;;4958076;28;20209;-66
2022/07/17 05:17:49;;;;;;;;;;;16.30;98.80;;;;;;4956233;28;21016;-67
2022/07/17 05:20:17;;;;;;;;;;;16.30;99.20;;;;;;4956441;28;21201;-67
2022/07/17 05:22:46;;;;;;;;;;;16.40;98.80;;;;;;4956629;28;20974;-67
2022/07/17 05:25:14;;;;;;;;;;;16.50;98.90;;;;;;4956300;28;20854;-67
2022/07/17 05:27:41;;;;;;;;;;;16.60;99.10;;;;;;4956527;28;20197;-66
2022/07/17 05:30:09;;;;;;;;;;;16.70;98.90;;;;;;4954318;28;20260;-67
2022/07/17 05:32:37;;;;;;;;;;;16.80;98.30;;;;;;4956557;28;20101;-67
2022/07/17 05:35:05;;;;;;;;;;;16.80;98.60;;;;;;4960083;28;20682;-67
2022/07/17 05:37:33;;;;;;;;;;;16.90;98.50;;;;;;4957673;28;20613;-67
2022/07/17 05:40:02;;;;;;;;;;;17.00;98.40;;;;;;4955142;28;20115;-67
2022/07/17 05:42:30;;;;;;;;;;;17.20;98.00;;;;;;4956297;28;21136;-65
2022/07/17 05:45:03;;;;;;;;;;;17.20;98.00;;;;;;4957869;28;20196;-66
2022/07/17 05:47:30;;;;;;;;;;;17.30;98.00;;;;;;4956466;28;20202;-65
2022/07/17 05:49:58;;;;;;;;;;;17.40;98.50;;;;;;4955965;28;20198;-65
2022/07/17 05:52:26;;;;;;;;;;;17.50;97.00;;;;;;4956812;28;20237;-65
2022/07/17 05:54:54;;;;;;;;;;;17.60;97.00;;;;;;4956643;28;20209;-65
2022/07/17 05:57:23;;;;;;;;;;;17.70;96.40;;;;;;4957135;28;20215;-66
2022/07/17 05:59:51;;;;;;;;;;;17.80;96.30;;;;;;4954879;28;20098;-66
2022/07/17 06:02:18;;;;;;;;;;;17.90;97.40;;;;;;4955328;28;20088;-66
2022/07/17 06:04:46;;;;;;;;;;;18.00;96.60;;;;;;4956423;28;20232;-66
2022/07/17 06:07:14;;;;;;;;;;;18.10;96.60;;;;;;4955901;28;20258;-66
2022/07/17 06:09:42;;;;;;;;;;;18.20;97.40;;;;;;4955396;28;20197;-66
2022/07/17 06:12:10;;;;;;;;;;;18.30;96.90;;;;;;4955562;28;20347;-66
2022/07/17 06:14:39;;;;;;;;;;;18.40;95.90;;;;;;4955046;28;20216;-66
2022/07/17 06:17:07;;;;;;;;;;;18.50;96.90;;;;;;4955034;28;20209;-66
2022/07/17 06:19:35;;;;;;;;;;;18.70;96.80;;;;;;4954565;28;20167;-67
2022/07/17 06:22:02;;;;;;;;;;;18.80;96.50;;;;;;4955028;28;20210;-66
2022/07/17 06:24:30;;;;;;;;;;;18.90;95.20;;;;;;4956207;28;20123;-66
2022/07/17 06:26:58;;;;;;;;;;;18.90;95.00;;;;;;4956262;28;20236;-67
2022/07/17 06:29:26;;;;;;;;;;;19.00;96.30;;;;;;4954530;28;20209;-66
2022/07/17 06:31:55;;;;;;;;;;;19.20;95.20;;;;;;4954709;28;20556;-65
2022/07/17 06:34:23;;;;;;;;;;;19.30;95.30;;;;;;4955770;28;20206;-67
2022/07/17 06:36:51;;;;;;;;;;;19.40;95.50;;;;;;4954280;28;20340;-66
2022/07/17 06:39:19;;;;;;;;;;;19.50;94.30;;;;;;4953487;28;20237;-66
2022/07/17 06:41:46;;;;;;;;;;;19.60;94.60;;;;;;4956449;28;20219;-66
2022/07/17 06:44:14;;;;;;;;;;;19.80;93.90;;;;;;4954845;28;20231;-65
2022/07/17 06:46:42;;;;;;;;;;;19.90;93.70;;;;;;4955298;28;20205;-67
2022/07/17 06:49:11;;;;;;;;;;;19.90;92.70;;;;;;4952677;28;20211;-67
2022/07/17 06:51:39;;;;;;;;;;;19.90;92.90;;;;;;4956425;28;20288;-66
2022/07/17 06:54:07;;;;;;;;;;;19.90;92.70;;;;;;4955862;28;20317;-66
2022/07/17 06:56:34;;;;;;;;;;;20.00;92.40;;;;;;4957085;28;20235;-66
2022/07/17 06:59:02;;;;;;;;;;;20.10;92.60;;;;;;4953326;28;20196;-67
2022/07/17 07:01:30;;;;;;;;;;;20.30;92.20;;;;;;4957090;28;20220;-67
2022/07/17 07:04:05;;;;;;;;;;;20.40;91.40;;;;;;4954798;28;20200;-65
2022/07/17 07:06:34;;;;;;;;;;;20.50;91.10;;;;;;4955527;28;20216;-65
2022/07/17 07:09:02;;;;;;;;;;;20.60;90.90;;;;;;4953180;28;20203;-66
2022/07/17 07:11:30;;;;;;;;;;;20.60;90.30;;;;;;4955580;28;20215;-66
2022/07/17 07:13:58;;;;;;;;;;;20.60;90.30;;;;;;4955263;28;20262;-67
2022/07/17 07:16:26;;;;;;;;;;;20.70;90.50;;;;;;4955843;28;20204;-65
2022/07/17 07:18:53;;;;;;;;;;;20.80;90.00;;;;;;4954619;28;20326;-65
2022/07/17 07:21:22;;;;;;;;;;;21.00;90.50;;;;;;4955327;28;20234;-67
2022/07/17 07:23:52;;;;;;;;;;;21.10;89.60;;;;;;4954045;28;20226;-68
2022/07/17 07:26:19;;;;;;;;;;;21.10;90.00;;;;;;4954596;28;20208;-67
2022/07/17 07:28:47;;;;;;;;;;;21.30;90.00;;;;;;4954296;28;20227;-66
2022/07/17 07:31:16;;;;;;;;;;;21.40;90.20;;;;;;4955835;28;20263;-67
2022/07/17 07:33:44;;;;;;;;;;;21.60;89.60;;;;;;4954812;28;20693;-67
2022/07/17 07:36:12;;;;;;;;;;;21.70;87.90;;;;;;4955613;28;20201;-66
2022/07/17 07:38:46;;;;;;;;;;;21.80;88.90;;;;;;4956697;28;20224;-67
2022/07/17 07:41:15;;;;;;;;;;;22.00;88.30;;;;;;4960103;28;20212;-67
2022/07/17 07:43:43;;;;;;;;;;;22.10;88.20;;;;;;4958798;28;20200;-67
2022/07/17 07:46:10;;;;;;;;;;;22.20;87.20;;;;;;4957233;28;20276;-67
2022/07/17 07:48:38;;;;;;;;;;;22.20;87.50;;;;;;4957812;28;20215;-65
2022/07/17 07:51:06;;;;;;;;;;;22.40;87.60;;;;;;4959654;28;20204;-65
2022/07/17 07:53:34;;;;;;;;;;;22.50;87.20;;;;;;4958165;28;20228;-66
2022/07/17 07:56:02;;;;;;;;;;;22.60;84.70;;;;;;4959514;28;20674;-65
2022/07/17 07:58:31;;;;;;;;;;;22.60;85.00;;;;;;4957345;28;20464;-67
2022/07/17 08:00:58;;;;;;;;;;;22.70;85.90;;;;;;4958632;28;21407;-65
2022/07/17 08:03:26;;;;;;;;;;;22.90;86.00;;;;;;4955863;28;20314;-67
2022/07/17 08:05:54;;;;;;;;;;;23.00;84.00;;;;;;4959934;28;21115;-66
2022/07/17 08:08:22;;;;;;;;;;;22.90;85.40;;;;;;4956055;28;20215;-65
2022/07/17 08:10:50;;;;;;;;;;;23.00;85.20;;;;;;4958949;28;20216;-66
2022/07/17 08:13:18;;;;;;;;;;;23.10;85.40;;;;;;4957710;28;20250;-66
2022/07/17 08:15:48;;;;;;;;;;;23.40;84.80;;;;;;4958658;28;21221;-66
2022/07/17 08:18:16;;;;;;;;;;;23.60;84.20;;;;;;4957545;28;20203;-66
2022/07/17 08:20:44;;;;;;;;;;;23.60;83.10;;;;;;4957774;28;20585;-66
2022/07/17 08:23:11;;;;;;;;;;;23.60;81.90;;;;;;4958302;28;20262;-66
2022/07/17 08:25:39;;;;;;;;;;;23.80;82.70;;;;;;4959493;28;20202;-67
2022/07/17 08:28:07;;;;;;;;;;;23.80;81.50;;;;;;4962433;28;20343;-67
2022/07/17 08:30:36;;;;;;;;;;;23.90;81.60;;;;;;4956876;28;20710;-65
2022/07/17 08:33:06;;;;;;;;;;;24.00;79.40;;;;;;4958138;28;20648;-66
2022/07/17 08:35:34;;;;;;;;;;;24.00;79.60;;;;;;4958717;28;20203;-66
2022/07/17 08:38:02;;;;;;;;;;;24.00;79.30;;;;;;4957282;28;20153;-66
2022/07/17 08:40:32;;;;;;;;;;;24.20;79.70;;;;;;4958670;28;20323;-67
2022/07/17 08:43:01;;;;;;;;;;;24.20;80.80;;;;;;4956813;28;20205;-67
2022/07/17 08:45:28;;;;;;;;;;;24.40;78.10;;;;;;4958513;28;20204;-67
2022/07/17 08:47:57;;;;;;;;;;;24.70;78.20;;;;;;4957721;28;21100;-67
2022/07/17 08:50:29;;;;;;;;;;;24.80;79.10;;;;;;4956965;28;20637;-68
2022/07/17 08:52:57;;;;;;;;;;;25.00;81.00;;;;;;4957912;28;20801;-67
2022/07/17 08:55:25;;;;;;;;;;;25.20;78.30;;;;;;4957847;28;20204;-67
2022/07/17 08:57:52;;;;;;;;;;;25.30;78.00;;;;;;4957683;28;20215;-68
2022/07/17 09:00:22;;;;;;;;;;;25.40;77.30;;;;;;4957171;28;21251;-67
2022/07/17 09:02:54;;;;;;;;;;;25.70;78.60;;;;;;4957518;28;20307;-68
2022/07/17 09:05:23;;;;;;;;;;;25.90;78.20;;;;;;4958718;28;21170;-67
2022/07/17 09:07:53;;;;;;;;;;;26.10;75.30;;;;;;4957251;28;20248;-66
2022/07/17 09:10:30;;;;;;;;;;;26.20;74.50;;;;;;4955970;28;20203;-68
2022/07/17 09:12:58;;;;;;;;;;;26.10;75.60;;;;;;4957191;28;20212;-67
2022/07/17 09:15:27;;;;;;;;;;;26.00;76.90;;;;;;4957725;28;21167;-66
2022/07/17 09:17:55;;;;;;;;;;;26.10;75.00;;;;;;4958723;28;20080;-67
2022/07/17 09:20:23;;;;;;;;;;;26.40;74.70;;;;;;4955936;28;20204;-68
2022/07/17 09:22:59;;;;;;;;;;;26.50;71.10;;;;;;4957430;28;20217;-66
2022/07/17 09:25:34;;;;;;;;;;;26.40;72.30;;;;;;4956777;28;20615;-67
2022/07/17 09:28:03;;;;;;;;;;;26.40;72.10;;;;;;4956863;28;20219;-66
2022/07/17 09:30:32;;;;;;;;;;;26.40;70.70;;;;;;4955423;28;20960;-66
2022/07/17 09:33:00;;;;;;;;;;;26.30;72.30;;;;;;4957614;28;20250;-66
2022/07/17 09:35:28;;;;;;;;;;;26.50;69.30;;;;;;4957371;28;20192;-66
2022/07/17 09:37:56;;;;;;;;;;;26.80;70.40;;;;;;4958564;28;20226;-66
2022/07/17 09:43:15;;;;;;;;;;;27.10;71.60;;;;;;4955456;28;20259;-66
2022/07/17 09:45:43;;;;;;;;;;;27.10;70.60;;;;;;4956095;28;20205;-67
2022/07/17 09:48:12;;;;;;;;;;;27.20;71.00;;;;;;4954838;28;21031;-66
2022/07/17 09:50:41;;;;;;;;;;;27.60;69.20;;;;;;4956179;28;20284;-67
2022/07/17 09:53:10;;;;;;;;;;;27.80;69.40;;;;;;4955907;28;20258;-66
2022/07/17 09:55:41;;;;;;;;;;;27.70;68.70;;;;;;4957339;28;20234;-66
2022/07/17 09:58:17;;;;;;;;;;;28.00;69.10;;;;;;4953365;28;20780;-66
2022/07/17 10:00:45;;;;;;;;;;;28.40;70.40;;;;;;4958141;28;20215;-67
2022/07/17 10:03:17;;;;;;;;;;;28.50;67.50;;;;;;4954877;28;20204;-67
2022/07/17 10:05:46;;;;;;;;;;;28.40;66.20;;;;;;4956040;28;21515;-67
2022/07/17 10:08:14;;;;;;;;;;;28.70;67.40;;;;;;4955333;28;20204;-68
2022/07/17 10:10:43;;;;;;;;;;;29.10;68.50;;;;;;4955994;28;20211;-67
2022/07/17 10:13:12;;;;;;;;;;;29.50;66.40;;;;;;4956167;28;20212;-68
2022/07/17 10:15:40;;;;;;;;;;;29.40;66.20;;;;;;4956897;28;20229;-66
2022/07/17 10:18:09;;;;;;;;;;;29.00;65.20;;;;;;4955097;28;20697;-66
2022/07/17 10:20:37;;;;;;;;;;;28.70;66.80;;;;;;4955574;28;20274;-66
2022/07/17 10:23:12;;;;;;;;;;;28.70;66.70;;;;;;4954126;28;20211;-67
2022/07/17 10:25:40;;;;;;;;;;;28.90;66.30;;;;;;4956219;28;20955;-67
2022/07/17 10:28:09;;;;;;;;;;;29.10;65.10;;;;;;4955593;28;20188;-66
2022/07/17 10:30:41;;;;;;;;;;;29.00;64.50;;;;;;4956128;28;20255;-68
2022/07/17 10:33:09;;;;;;;;;;;29.50;65.60;;;;;;4955455;28;20196;-66
2022/07/17 10:35:43;;;;;;;;;;;29.70;64.70;;;;;;4956942;28;20270;-67
2022/07/17 10:38:12;;;;;;;;;;;29.60;65.10;;;;;;4956072;28;20200;-66
2022/07/17 10:40:41;;;;;;;;;;;30.00;63.60;;;;;;4955346;28;20228;-66
2022/07/17 10:43:11;;;;;;;;;;;30.40;63.60;;;;;;4955723;28;20196;-65
2022/07/17 10:45:39;;;;;;;;;;;30.50;62.90;;;;;;4956321;28;20200;-66
2022/07/17 10:48:08;;;;;;;;;;;30.60;61.80;;;;;;4956716;28;20200;-67
2022/07/17 10:50:39;;;;;;;;;;;30.70;62.60;;;;;;4955174;28;20255;-65
2022/07/17 10:53:08;;;;;;;;;;;30.70;62.50;;;;;;4953901;28;20326;-66
2022/07/17 10:55:37;;;;;;;;;;;30.90;62.10;;;;;;4956471;28;20210;-67
2022/07/17 10:58:13;;;;;;;;;;;31.20;62.50;;;;;;4955174;28;20270;-65
2022/07/17 11:00:42;;;;;;;;;;;31.00;62.90;;;;;;4957020;28;20208;-66
2022/07/17 11:03:11;;;;;;;;;;;30.50;62.60;;;;;;4954348;28;20200;-66
2022/07/17 11:05:39;;;;;;;;;;;30.50;62.30;;;;;;4953200;28;20230;-66
2022/07/17 11:08:09;;;;;;;;;;;30.40;62.10;;;;;;4957192;28;20200;-67
2022/07/17 11:10:37;;;;;;;;;;;30.40;63.40;;;;;;4954262;28;20220;-66
2022/07/17 11:13:09;;;;;;;;;;;30.00;62.70;;;;;;4955996;28;20205;-66
2022/07/17 11:15:45;;;;;;;;;;;29.70;64.00;;;;;;4954081;28;20199;-67
2022/07/17 11:18:14;;;;;;;;;;;29.90;64.90;;;;;;4953883;28;20217;-68
2022/07/17 11:20:49;;;;;;;;;;;30.00;63.70;;;;;;4955791;28;20948;-67
2022/07/17 11:23:16;;;;;;;;;;;29.90;62.70;;;;;;4955685;28;20209;-66
2022/07/17 11:25:54;;;;;;;;;;;29.70;63.30;;;;;;4954509;28;20214;-67
2022/07/17 11:28:29;;;;;;;;;;;29.70;63.70;;;;;;4953861;28;20215;-67
2022/07/17 11:30:58;;;;;;;;;;;29.90;63.20;;;;;;4956436;28;20218;-66
2022/07/17 11:33:26;;;;;;;;;;;30.20;64.30;;;;;;4954978;28;20302;-66
2022/07/17 11:35:55;;;;;;;;;;;30.50;63.50;;;;;;4955398;28;20200;-66
2022/07/17 11:38:27;;;;;;;;;;;30.50;62.50;;;;;;4954267;28;20285;-66
2022/07/17 11:40:55;;;;;;;;;;;30.80;61.20;;;;;;4956427;28;20227;-66
2022/07/17 11:43:29;;;;;;;;;;;30.60;62.20;;;;;;4955584;28;20216;-67
2022/07/17 11:45:58;;;;;;;;;;;30.60;61.00;;;;;;4955556;28;21072;-67
2022/07/17 11:48:26;;;;;;;;;;;31.10;60.60;;;;;;4953264;28;20762;-67
2022/07/17 11:50:55;;;;;;;;;;;31.20;62.00;;;;;;4956756;28;20187;-66
2022/07/17 11:53:33;;;;;;;;;;;31.10;61.80;;;;;;4956502;28;20174;-67
2022/07/17 11:56:01;;;;;;;;;;;30.90;62.10;;;;;;4955608;28;20269;-66
2022/07/17 11:58:29;;;;;;;;;;;31.30;61.10;;;;;;4951703;28;20207;-67
2022/07/17 12:01:03;;;;;;;;;;;31.50;61.40;;;;;;4956157;28;20090;-66
2022/07/17 12:03:31;;;;;;;;;;;31.00;61.70;;;;;;4954870;28;20202;-67
2022/07/17 12:05:59;;;;;;;;;;;30.80;63.40;;;;;;4953815;28;20195;-67
2022/07/17 12:08:27;;;;;;;;;;;31.10;62.70;;;;;;4953638;28;20783;-66
2022/07/17 12:11:01;;;;;;;;;;;31.40;61.20;;;;;;4956079;28;20985;-67
2022/07/17 12:13:42;;;;;;;;;;;31.50;60.10;;;;;;4954292;28;20238;-68
2022/07/17 12:16:26;;;;;;;;;;;32.20;62.50;;;;;;4954679;28;20277;-67
2022/07/17 12:19:03;;;;;;;;;;;32.40;61.00;;;;;;4951565;28;20249;-67
2022/07/17 12:21:32;;;;;;;;;;;31.80;60.30;;;;;;4955766;28;20201;-66
2022/07/17 12:24:02;;;;;;;;;;;31.70;62.30;;;;;;4957608;28;20210;-67
2022/07/17 12:26:30;;;;;;;;;;;31.90;61.20;;;;;;4959229;28;20304;-66
2022/07/17 12:28:58;;;;;;;;;;;32.10;60.20;;;;;;4959838;28;20231;-68
2022/07/17 12:31:31;;;;;;;;;;;32.00;60.50;;;;;;4961900;28;20319;-67
2022/07/17 12:33:59;;;;;;;;;;;32.30;61.80;;;;;;4958611;28;20201;-66
2022/07/17 12:36:27;;;;;;;;;;;32.30;60.60;;;;;;4958393;28;20799;-67
2022/07/17 12:38:55;;;;;;;;;;;32.30;60.50;;;;;;4956729;28;20268;-67
2022/07/17 12:41:23;;;;;;;;;;;32.20;60.30;;;;;;4959013;28;20193;-66
2022/07/17 12:43:51;;;;;;;;;;;32.30;59.40;;;;;;4957084;28;20198;-67
2022/07/17 12:46:19;;;;;;;;;;;32.30;59.10;;;;;;4957457;28;20209;-68
2022/07/17 12:48:49;;;;;;;;;;;32.60;58.70;;;;;;4957286;28;20221;-66
2022/07/17 12:51:16;;;;;;;;;;;32.60;59.10;;;;;;4958994;28;20750;-67
2022/07/17 12:53:45;;;;;;;;;;;32.40;59.20;;;;;;4972804;28;20637;-67
2022/07/17 12:56:13;;;;;;;;;;;32.20;58.90;;;;;;4957994;28;20196;-67
2022/07/17 12:58:41;;;;;;;;;;;31.90;60.00;;;;;;4971477;28;21208;-66
2022/07/17 13:01:09;;;;;;;;;;;32.30;59.40;;;;;;4959895;28;20660;-66
2022/07/17 13:03:37;;;;;;;;;;;32.30;60.30;;;;;;4959328;28;21086;-67
2022/07/17 13:06:06;;;;;;;;;;;31.90;59.60;;;;;;4959995;28;21096;-67
2022/07/17 13:08:34;;;;;;;;;;;31.90;59.10;;;;;;4956087;28;25098;-67
2022/07/17 13:11:03;;;;;;;;;;;32.20;59.30;;;;;;4960219;28;20647;-68
2022/07/17 13:13:37;;;;;;;;;;;32.00;59.00;;;;;;4974207;28;20202;-67
2022/07/17 13:16:11;;;;;;;;;;;31.40;59.20;;;;;;4957602;28;20448;-67
2022/07/17 13:18:39;;;;;;;;;;;31.50;58.90;;;;;;4954647;28;25080;-66
2022/07/17 13:21:08;;;;;;;;;;;32.10;59.10;;;;;;4958232;28;20707;-68
2022/07/17 13:23:37;;;;;;;;;;;32.30;58.40;;;;;;4957330;28;20221;-67
2022/07/17 13:26:05;;;;;;;;;;;32.10;59.00;;;;;;4958056;28;25073;-67
2022/07/17 13:28:33;;;;;;;;;;;32.20;58.10;;;;;;4955647;28;20954;-66
2022/07/17 13:31:01;;;;;;;;;;;32.30;58.30;;;;;;4957626;28;20220;-66
2022/07/17 13:33:31;;;;;;;;;;;32.10;58.70;;;;;;4954486;28;21533;-66
2022/07/17 13:35:59;;;;;;;;;;;32.10;57.60;;;;;;4956859;28;20195;-67
2022/07/17 13:38:28;;;;;;;;;;;31.90;58.00;;;;;;4955830;28;20231;-67
2022/07/17 13:40:55;;;;;;;;;;;31.60;57.90;;;;;;4959151;28;20220;-67
2022/07/17 13:43:23;;;;;;;;;;;32.10;58.40;;;;;;4956090;28;20322;-67
2022/07/17 13:45:51;;;;;;;;;;;32.40;57.70;;;;;;4957366;28;20287;-67
2022/07/17 13:48:19;;;;;;;;;;;32.50;57.90;;;;;;4954165;28;20237;-67
2022/07/17 13:50:47;;;;;;;;;;;32.40;57.60;;;;;;4958128;28;20212;-67
2022/07/17 13:53:15;;;;;;;;;;;32.70;57.10;;;;;;4957353;28;20300;-66
2022/07/17 13:55:44;;;;;;;;;;;33.10;57.70;;;;;;4956455;28;20229;-67
2022/07/17 13:58:19;;;;;;;;;;;33.50;56.00;;;;;;4953800;28;20240;-67
2022/07/17 14:00:46;;;;;;;;;;;33.90;57.10;;;;;;4958016;28;20674;-68
2022/07/17 14:03:14;;;;;;;;;;;34.10;57.50;;;;;;4956308;28;20200;-68
2022/07/17 14:05:42;;;;;;;;;;;34.10;56.20;;;;;;4956300;28;20283;-67
2022/07/17 14:08:11;;;;;;;;;;;33.90;55.70;;;;;;4957961;28;20304;-65
2022/07/17 14:10:39;;;;;;;;;;;33.30;55.70;;;;;;4958981;28;20186;-67
2022/07/17 14:13:09;;;;;;;;;;;33.20;55.40;;;;;;4957865;28;20183;-67
2022/07/17 14:15:37;;;;;;;;;;;32.40;55.60;;;;;;4957317;28;20189;-68
2022/07/17 14:18:04;;;;;;;;;;;32.80;55.80;;;;;;4957800;28;20249;-67
2022/07/17 14:20:32;;;;;;;;;;;33.20;55.80;;;;;;4956324;28;20596;-68
2022/07/17 14:23:00;;;;;;;;;;;34.10;55.50;;;;;;4958101;28;20187;-68
2022/07/17 14:25:28;;;;;;;;;;;34.80;55.40;;;;;;4958259;28;20183;-67
2022/07/17 14:27:56;;;;;;;;;;;34.60;54.00;;;;;;4958197;28;20203;-67